KDNN 151835Z AUTO 14004KT 10SM CLR 27/18 A3000 RMK AO2